e-Mail: Password: Lost your password? Click here. - Register a new user

c h a v e z j u a r e z . c o m

Weather - Tiempo - Wetter - Temps

METAR DATA MMMX (Mexico City)

Mexico City / Licenci, Mexico (MMMX) 19-26N 099-06W
Jul 07, 2020 - 09:18 PM EDT / 2020.07.08 0118 UTC
Wind: from the ENE (060 degrees) at 12 MPH (10 KT):0
Visibility: 10 mile(s):0
Sky conditions: mostly cloudy
Temperature: 64 F (18 C)
Dew Point: 51 F (11 C)
Relative Humidity: 63%
Pressure (altimeter): 30.31 in. Hg (1026 hPa)
ob: MMMX 080118Z 06010KT 10SM SCT020 BKN080 BKN220 18/11 A3031 NOSIG RMK 8/463 LWR SC
cycle: 1

Mexico City

St. Prex




Current weather alarms for Switzerland


www.wetteralarm.ch